Time;durP1;ratioP1;P1;durP2;ratioP2;P2;SDS_P1;SDS_P2;PMS_P1;PMS_P2;Temp;Humidity;BMP_temperature;BMP_pressure;BME280_temperature;BME280_humidity;BME280_pressure;Samples;Min_cycle;Max_cycle;Signal;HPM_P1;HPM_P2
2022/08/19 00:01:12;;;;;;;1999.90;999.90;;;;;;;19.34;100.00;93522.72;5118395;28;20203;-56
2022/08/19 00:03:37;;;;;;;1999.90;999.90;;;;;;;19.35;100.00;93554.69;5118024;28;20214;-55
2022/08/19 00:06:03;;;;;;;1999.90;999.90;;;;;;;19.36;100.00;93576.34;5118001;28;20217;-55
2022/08/19 00:08:28;;;;;;;1999.90;999.90;;;;;;;19.44;100.00;93577.34;5118459;27;20219;-49
2022/08/19 00:10:54;;;;;;;1999.90;999.90;;;;;;;19.43;100.00;93586.16;5118449;28;20281;-60
2022/08/19 00:13:19;;;;;;;1999.90;999.90;;;;;;;19.43;100.00;93600.00;5136392;28;20235;-59
2022/08/19 00:15:44;;;;;;;1999.90;999.90;;;;;;;19.44;100.00;93616.09;5117895;28;20277;-59
2022/08/19 00:18:10;;;;;;;1999.90;999.90;;;;;;;19.49;100.00;93622.91;5118340;28;20189;-61
2022/08/19 00:20:40;;;;;;;1999.90;999.90;;;;;;;19.52;100.00;93635.72;5118190;28;20175;-59
2022/08/19 00:23:05;;;;;;;1999.90;999.90;;;;;;;19.56;100.00;93652.88;5117648;28;20179;-59
2022/08/19 00:25:31;;;;;;;1999.90;999.90;;;;;;;19.57;100.00;93664.69;5116630;28;20235;-59
2022/08/19 00:27:56;;;;;;;1999.90;999.90;;;;;;;19.53;100.00;93667.72;5117796;28;20195;-55
2022/08/19 00:30:21;;;;;;;1999.90;999.90;;;;;;;19.55;100.00;93676.28;5117401;28;20273;-57
2022/08/19 00:32:47;;;;;;;1999.90;999.90;;;;;;;19.55;100.00;93681.81;5117712;28;20201;-56
2022/08/19 00:35:12;;;;;;;1999.90;999.90;;;;;;;19.55;100.00;93687.34;5117653;28;20231;-56
2022/08/19 00:37:38;;;;;;;1999.90;999.90;;;;;;;19.54;100.00;93708.00;5117629;28;20221;-56
2022/08/19 00:40:05;;;;;;;1999.90;999.90;;;;;;;19.59;100.00;93712.78;5117806;28;20191;-56
2022/08/19 00:42:31;;;;;;;1999.90;999.90;;;;;;;19.61;100.00;93718.59;5117749;28;20179;-57
2022/08/19 00:44:56;;;;;;;1999.90;999.90;;;;;;;19.60;100.00;93728.16;5118394;28;20179;-61
2022/08/19 00:47:21;;;;;;;1999.90;999.90;;;;;;;19.58;100.00;93735.44;5117729;28;20648;-55
2022/08/19 00:49:51;;;;;;;1999.90;999.90;;;;;;;19.61;100.00;93734.44;5117488;28;20206;-54
2022/08/19 00:52:38;;;;;;;1999.90;999.90;;;;;;;19.52;100.00;93733.44;5117851;28;20190;-55
2022/08/19 00:55:10;;;;;;;1999.90;999.90;;;;;;;19.58;100.00;93722.34;5117433;28;20210;-53
2022/08/19 00:57:39;;;;;;;1999.90;999.90;;;;;;;19.56;100.00;93727.66;5117188;28;20191;-55
2022/08/19 01:00:12;;;;;;;1999.90;999.90;;;;;;;19.56;100.00;93738.72;5117440;28;20179;-54
2022/08/19 01:02:39;;;;;;;1999.90;999.90;;;;;;;19.53;100.00;93750.81;5135522;28;20187;-61
2022/08/19 01:05:07;;;;;;;1999.90;999.90;;;;;;;19.47;100.00;93772.19;5117391;28;20218;-59
2022/08/19 01:07:34;;;;;;;1999.90;999.90;;;;;;;19.35;100.00;93756.81;5117005;28;20198;-55
2022/08/19 01:10:00;;;;;;;1999.90;999.90;;;;;;;19.35;100.00;93740.19;5117606;28;20207;-57
2022/08/19 01:12:25;;;;;;;1999.90;999.90;;;;;;;19.29;100.00;93731.09;5117179;28;20182;-55
2022/08/19 01:14:52;;;;;;;1999.90;999.90;;;;;;;19.29;100.00;93726.34;5117066;28;20231;-55
2022/08/19 01:17:18;;;;;;;1999.90;999.90;;;;;;;19.32;100.00;93710.72;5117395;28;20183;-55
2022/08/19 01:19:46;;;;;;;1999.90;999.90;;;;;;;19.32;100.00;93707.97;5117136;28;20199;-55
2022/08/19 01:22:23;;;;;;;1999.90;999.90;;;;;;;19.34;100.00;93708.25;5117399;28;20277;-60
2022/08/19 01:24:51;;;;;;;1999.90;999.90;;;;;;;19.33;100.00;93726.09;5116776;28;20198;-55
2022/08/19 01:27:17;;;;;;;1999.90;999.90;;;;;;;19.35;100.00;93729.84;5116925;28;20187;-52
2022/08/19 01:29:44;;;;;;;1999.90;999.90;;;;;;;19.33;100.00;93731.63;5116973;28;20183;-55
2022/08/19 01:32:13;;;;;;;1999.90;999.90;;;;;;;19.32;100.00;93741.97;5116953;28;20183;-54
2022/08/19 01:34:39;;;;;;;1999.90;999.90;;;;;;;19.36;100.00;93753.53;5117318;28;20194;-54
2022/08/19 01:37:10;;;;;;;1999.90;999.90;;;;;;;19.39;100.00;93763.63;5116383;28;20210;-53
2022/08/19 01:39:37;;;;;;;1999.90;999.90;;;;;;;19.45;100.00;93766.41;5116823;28;20263;-49
2022/08/19 01:42:04;;;;;;;1999.90;999.90;;;;;;;19.48;100.00;93768.91;5116963;28;20179;-53
2022/08/19 01:44:29;;;;;;;1999.90;999.90;;;;;;;19.52;100.00;93763.13;5116838;28;20190;-59
2022/08/19 01:46:55;;;;;;;1999.90;999.90;;;;;;;19.53;100.00;93772.97;5117140;28;20203;-59
2022/08/19 01:49:26;;;;;;;1999.90;999.90;;;;;;;19.52;100.00;93788.06;5116765;28;20206;-59
2022/08/19 01:51:53;;;;;;;1999.90;999.90;;;;;;;19.54;100.00;93782.78;5116388;28;20204;-59
2022/08/19 01:54:22;;;;;;;1999.90;999.90;;;;;;;19.53;100.00;93803.44;5117064;28;20194;-59
2022/08/19 01:56:48;;;;;;;1999.90;999.90;;;;;;;19.53;100.00;93808.97;5116287;28;20215;-59
2022/08/19 01:59:17;;;;;;;1999.90;999.90;;;;;;;19.48;100.00;93826.31;5116463;28;20191;-63
2022/08/19 02:01:43;;;;;;;1999.90;999.90;;;;;;;19.52;100.00;93815.75;5116345;28;20279;-53
2022/08/19 02:04:08;;;;;;;1999.90;999.90;;;;;;;19.52;100.00;93815.00;5116440;28;20214;-55
2022/08/19 02:06:34;;;;;;;1999.90;999.90;;;;;;;19.49;100.00;93816.78;5134500;28;20178;-51
2022/08/19 02:09:00;;;;;;;1999.90;999.90;;;;;;;19.48;100.00;93826.31;5116224;28;20227;-52
2022/08/19 02:11:29;;;;;;;1999.90;999.90;;;;;;;19.51;100.00;93841.94;5116306;28;20230;-56
2022/08/19 02:13:55;;;;;;;1999.90;999.90;;;;;;;19.48;100.00;93858.81;5116110;28;20178;-54
2022/08/19 02:16:21;;;;;;;1999.90;999.90;;;;;;;19.44;100.00;93859.78;5116174;28;20201;-53
2022/08/19 02:18:50;;;;;;;1999.90;999.90;;;;;;;19.49;100.00;93870.13;5116138;28;20224;-47
2022/08/19 02:21:20;;;;;;;1999.90;999.90;;;;;;;19.49;100.00;93883.22;5116160;28;20183;-66
2022/08/19 02:23:46;;;;;;;1999.90;999.90;;;;;;;19.51;100.00;93886.25;5134291;28;20206;-66
2022/08/19 02:26:13;;;;;;;1999.90;999.90;;;;;;;19.53;100.00;93895.56;5116343;28;20191;-67
2022/08/19 02:28:39;;;;;;;1999.90;999.90;;;;;;;19.51;100.00;93908.41;5116280;28;20318;-67
2022/08/19 02:31:10;;;;;;;1999.90;999.90;;;;;;;19.58;100.00;93916.25;5115978;28;20184;-67
2022/08/19 02:33:35;;;;;;;1999.90;999.90;;;;;;;19.60;100.00;93924.06;5116285;28;20217;-64
2022/08/19 02:36:04;;;;;;;1999.90;999.90;;;;;;;19.59;100.00;93926.06;5116143;28;20242;-49
2022/08/19 02:38:30;;;;;;;1999.90;999.90;;;;;;;19.55;100.00;93925.53;5115807;28;20183;-55
2022/08/19 02:40:58;;;;;;;1999.90;999.90;;;;;;;19.61;100.00;93922.81;5134106;28;20211;-57
2022/08/19 02:43:25;;;;;;;1999.90;999.90;;;;;;;19.56;100.00;93909.69;5115903;28;20194;-57
2022/08/19 02:45:51;;;;;;;1999.90;999.90;;;;;;;19.55;100.00;93891.56;5115890;28;20218;-56
2022/08/19 02:48:21;;;;;;;1999.90;999.90;;;;;;;19.57;100.00;93884.28;5116661;28;20222;-55
2022/08/19 02:50:52;;;;;;;1999.90;999.90;;;;;;;19.52;100.00;93889.78;5119518;28;20210;-56
2022/08/19 02:53:17;;;;;;;1999.90;999.90;;;;;;;19.45;100.00;93900.06;5119166;28;20289;-51
2022/08/19 02:55:47;;;;;;;1999.90;999.90;;;;;;;19.41;100.00;93890.47;5119329;28;20301;-55
2022/08/19 02:58:14;;;;;;;1999.90;999.90;;;;;;;19.38;100.00;93877.66;5119103;28;20183;-62
2022/08/19 03:00:49;;;;;;;1999.90;999.90;;;;;;;19.39;100.00;93879.16;5119331;28;20292;-61
2022/08/19 03:03:15;;;;;;;1999.90;999.90;;;;;;;19.33;100.00;93876.34;5119280;28;20194;-60
2022/08/19 03:05:42;;;;;;;1999.90;999.90;;;;;;;19.30;100.00;93880.13;5118741;28;20286;-61
2022/08/19 03:08:11;;;;;;;1999.90;999.90;;;;;;;19.26;100.00;93865.00;5119069;28;20179;-61
2022/08/19 03:10:46;;;;;;;1999.90;999.90;;;;;;;19.16;100.00;93866.44;5118986;28;20234;-60
2022/08/19 03:13:14;;;;;;;1999.90;999.90;;;;;;;19.11;100.00;93854.06;5119158;28;20212;-61
2022/08/19 03:15:45;;;;;;;1999.90;999.90;;;;;;;19.15;100.00;93842.75;5118872;28;20230;-48
2022/08/19 03:18:11;;;;;;;1999.90;999.90;;;;;;;19.13;100.00;93828.66;5119399;28;20191;-49
2022/08/19 03:20:45;;;;;;;1999.90;999.90;;;;;;;19.12;100.00;93821.59;5118832;28;20183;-49
2022/08/19 03:23:12;;;;;;;1999.90;999.90;;;;;;;19.11;100.00;93825.63;5119106;28;20187;-46
2022/08/19 03:25:45;;;;;;;1999.90;999.90;;;;;;;19.13;100.00;93834.22;5118807;28;20179;-47
2022/08/19 03:28:11;;;;;;;1999.90;999.90;;;;;;;19.16;100.00;93833.22;5119182;28;20217;-47
2022/08/19 03:30:39;;;;;;;1999.90;999.90;;;;;;;19.21;100.00;93829.72;5119366;28;20231;-63
2022/08/19 03:33:05;;;;;;;1999.90;999.90;;;;;;;19.23;100.00;93832.75;5118825;28;20216;-49
2022/08/19 03:35:30;;;;;;;1999.90;999.90;;;;;;;19.28;100.00;93829.28;5118428;28;20231;-48
2022/08/19 03:37:56;;;;;;;1999.90;999.90;;;;;;;19.30;100.00;93829.50;5118520;28;20187;-50
2022/08/19 03:40:21;;;;;;;1999.90;999.90;;;;;;;19.34;100.00;93818.97;5118606;28;20194;-49
2022/08/19 03:42:47;;;;;;;1999.90;999.90;;;;;;;19.35;100.00;93828.78;5118607;28;20225;-45
2022/08/19 03:45:12;;;;;;;1999.90;999.90;;;;;;;19.37;100.00;93829.81;5118592;28;20195;-46
2022/08/19 03:47:38;;;;;;;1999.90;999.90;;;;;;;19.34;100.00;93841.13;5118564;28;20183;-47
2022/08/19 03:50:04;;;;;;;1999.90;999.90;;;;;;;19.35;100.00;93842.63;5118287;28;20203;-62
2022/08/19 03:52:30;;;;;;;1999.90;999.90;;;;;;;19.32;100.00;93843.63;5118795;28;20248;-52
2022/08/19 03:54:55;;;;;;;1999.90;999.90;;;;;;;19.34;100.00;93843.91;5118643;28;20191;-53
2022/08/19 03:57:21;;;;;;;1999.90;999.90;;;;;;;19.39;100.00;93843.16;5118434;28;20213;-54
2022/08/19 03:59:46;;;;;;;1999.90;999.90;;;;;;;19.38;100.00;93855.50;5118088;28;20190;-55
2022/08/19 04:02:13;;;;;;;1999.90;999.90;;;;;;;19.32;100.00;93846.41;5118913;28;20194;-54
2022/08/19 04:04:41;;;;;;;1999.90;999.90;;;;;;;19.32;100.00;93857.47;5118620;28;20180;-56
2022/08/19 04:07:08;;;;;;;1999.90;999.90;;;;;;;19.33;100.00;93845.13;5118768;28;20190;-47
2022/08/19 04:09:53;;;;;;;1999.90;999.90;;;;;;;19.36;100.00;93844.91;5117930;28;20195;-49
2022/08/19 04:12:20;;;;;;;1999.90;999.90;;;;;;;19.40;100.00;93850.19;5118448;28;20197;-47
2022/08/19 04:14:45;;;;;;;1999.90;999.90;;;;;;;19.39;100.00;93855.00;5117969;28;20308;-45
2022/08/19 04:17:13;;;;;;;1999.90;999.90;;;;;;;19.40;100.00;93864.03;5118393;28;20314;-48
2022/08/19 04:19:39;;;;;;;1999.90;999.90;;;;;;;19.40;100.00;93875.13;5118134;28;20175;-48
2022/08/19 04:22:05;;;;;;;1999.90;999.90;;;;;;;19.42;100.00;93872.63;5118080;28;20190;-48
2022/08/19 04:24:31;;;;;;;1999.90;999.90;;;;;;;19.42;100.00;93872.63;5117479;28;20178;-59
2022/08/19 04:27:00;;;;;;;1999.90;999.90;;;;;;;19.46;100.00;93873.16;5117931;28;20183;-57
2022/08/19 04:29:26;;;;;;;1999.90;999.90;;;;;;;19.47;100.00;93880.19;5117927;28;20175;-60
2022/08/19 04:31:55;;;;;;;1999.90;999.90;;;;;;;19.51;100.00;93891.06;5117645;28;20216;-60
2022/08/19 04:34:23;;;;;;;1999.90;999.90;;;;;;;19.51;100.00;93908.41;5118042;28;20190;-60
2022/08/19 04:36:50;;;;;;;1999.90;999.90;;;;;;;19.49;100.00;93919.25;5117399;28;20202;-60
2022/08/19 04:39:19;;;;;;;1999.90;999.90;;;;;;;19.52;100.00;93921.00;5117550;28;20183;-61
2022/08/19 04:44:35;;;;;;;1999.90;999.90;;;;;;;19.53;100.00;93934.34;5136141;28;20190;-47
2022/08/19 04:47:01;;;;;;;1999.90;999.90;;;;;;;19.50;100.00;93945.66;5117637;28;20213;-60
2022/08/19 04:49:26;;;;;;;1999.90;999.90;;;;;;;19.53;100.00;93956.50;5117972;28;20233;-61
2022/08/19 04:51:54;;;;;;;1999.90;999.90;;;;;;;19.58;100.00;93951.47;5117876;28;20179;-61
2022/08/19 04:54:22;;;;;;;1999.90;999.90;;;;;;;19.57;100.00;93967.38;5117206;28;20255;-61
2022/08/19 04:56:51;;;;;;;1999.90;999.90;;;;;;;19.58;100.00;93971.66;5117860;28;20203;-60
2022/08/19 04:59:19;;;;;;;1999.90;999.90;;;;;;;19.57;100.00;93961.06;5117274;28;20240;-60
2022/08/19 05:01:49;;;;;;;1999.90;999.90;;;;;;;19.50;100.00;93956.75;5117689;28;20193;-68
2022/08/19 05:04:15;;;;;;;1999.90;999.90;;;;;;;19.52;100.00;93957.00;5117663;28;20215;-57
2022/08/19 05:06:40;;;;;;;1999.90;999.90;;;;;;;19.52;100.00;93959.75;5117143;28;20208;-52
2022/08/19 05:09:06;;;;;;;1999.90;999.90;;;;;;;19.53;100.00;93966.84;5116956;28;20199;-53
2022/08/19 05:11:38;;;;;;;1999.90;999.90;;;;;;;19.51;100.00;93968.59;5116258;28;20183;-55
2022/08/19 05:14:03;;;;;;;1999.90;999.90;;;;;;;19.52;100.00;93971.63;5117772;28;20171;-52
2022/08/19 05:16:29;;;;;;;1999.90;999.90;;;;;;;19.56;100.00;93968.63;5135175;28;20207;-52
2022/08/19 05:24:25;;;;;;;1999.90;999.90;;;;;;;19.59;100.00;93986.25;5135347;28;20189;-56
2022/08/19 05:26:52;;;;;;;1999.90;999.90;;;;;;;19.59;100.00;93986.25;5135096;28;20194;-56
2022/08/19 05:29:21;;;;;;;1999.90;999.90;;;;;;;19.61;100.00;93987.28;5117041;28;20267;-57
2022/08/19 05:31:49;;;;;;;1999.90;999.90;;;;;;;19.64;100.00;93989.06;5116916;28;20191;-57
2022/08/19 05:34:15;;;;;;;1999.90;999.90;;;;;;;19.67;100.00;93985.31;5116781;28;20183;-57
2022/08/19 05:36:43;;;;;;;1999.90;999.90;;;;;;;19.72;100.00;93990.09;5116247;28;20214;-57
2022/08/19 05:39:12;;;;;;;1999.90;999.90;;;;;;;19.76;100.00;93995.41;5116935;28;20194;-59
2022/08/19 05:41:44;;;;;;;1999.90;999.90;;;;;;;19.78;100.00;94007.53;5116473;28;20194;-58
2022/08/19 05:44:10;;;;;;;1999.90;999.90;;;;;;;19.80;100.00;94001.47;5117041;28;20190;-58
2022/08/19 05:46:37;;;;;;;1999.90;999.90;;;;;;;19.81;100.00;93998.19;5117059;28;20193;-57
2022/08/19 05:49:06;;;;;;;1999.90;999.90;;;;;;;19.87;100.00;94009.31;5116553;28;20218;-57
2022/08/19 05:51:33;;;;;;;1999.90;999.90;;;;;;;19.82;100.00;94021.91;5116343;28;20183;-57
2022/08/19 05:53:59;;;;;;;1999.90;999.90;;;;;;;19.86;100.00;94022.44;5116563;28;20179;-56
2022/08/19 05:56:25;;;;;;;1999.90;999.90;;;;;;;19.91;100.00;94026.47;5116206;28;20259;-62
2022/08/19 05:58:50;;;;;;;1999.90;999.90;;;;;;;19.96;100.00;94031.28;5116482;28;20191;-62
2022/08/19 06:01:17;;;;;;;1999.90;999.90;;;;;;;19.98;100.00;94035.06;5116157;28;20183;-58
2022/08/19 06:03:44;;;;;;;1999.90;999.90;;;;;;;19.88;100.00;94042.06;5116350;28;20287;-58
2022/08/19 06:06:11;;;;;;;1999.90;999.90;;;;;;;19.91;100.00;94024.47;5116124;28;20189;-58
2022/08/19 06:08:38;;;;;;;1999.90;999.90;;;;;;;19.88;100.00;94006.03;5116156;28;20210;-58
2022/08/19 06:11:15;;;;;;;1999.90;999.90;;;;;;;19.85;100.00;93986.91;5116378;28;20222;-57
2022/08/19 06:13:41;;;;;;;1999.90;999.90;;;;;;;19.81;100.00;93980.84;5116304;28;20193;-58
2022/08/19 06:16:06;;;;;;;1999.90;999.90;;;;;;;19.76;100.00;93967.69;5116126;28;20221;-57
2022/08/19 06:18:33;;;;;;;1999.90;999.90;;;;;;;19.68;100.00;93948.03;5116288;28;20197;-58
2022/08/19 06:20:58;;;;;;;1999.90;999.90;;;;;;;19.63;100.00;93921.03;5116032;28;20175;-58
2022/08/19 06:23:24;;;;;;;1999.90;999.90;;;;;;;19.54;100.00;93890.81;5118913;28;20194;-58
2022/08/19 06:25:49;;;;;;;1999.90;999.90;;;;;;;19.49;100.00;93858.31;5119655;28;20251;-58
2022/08/19 06:28:14;;;;;;;1999.90;999.90;;;;;;;19.44;100.00;93820.25;5119493;28;20198;-56
2022/08/19 06:30:40;;;;;;;1999.90;999.90;;;;;;;19.40;100.00;93775.44;5137789;28;20258;-56
2022/08/19 06:33:05;;;;;;;1999.90;999.90;;;;;;;19.35;100.00;93745.72;5119461;28;20240;-56
2022/08/19 06:35:30;;;;;;;1999.90;999.90;;;;;;;19.37;100.00;93707.22;5119422;28;20237;-64
2022/08/19 06:37:56;;;;;;;1999.90;999.90;;;;;;;19.41;100.00;93666.19;5119367;28;20218;-65
2022/08/19 06:40:21;;;;;;;1999.90;999.90;;;;;;;19.44;100.00;93631.97;5119378;28;20187;-65
2022/08/19 06:42:46;;;;;;;1999.90;999.90;;;;;;;19.45;100.00;93605.78;5120167;28;20187;-66
2022/08/19 06:45:12;;;;;;;1999.90;999.90;;;;;;;19.45;100.00;93572.56;5119424;28;20228;-62
2022/08/19 06:47:37;;;;;;;1999.90;999.90;;;;;;;19.40;100.00;93565.00;5119519;28;20194;-63
2022/08/19 06:50:04;;;;;;;1999.90;999.90;;;;;;;19.42;100.00;93541.06;5119178;28;20219;-62
2022/08/19 06:52:34;;;;;;;1999.90;999.90;;;;;;;19.45;100.00;93522.72;5137275;28;20175;-62
2022/08/19 06:55:00;;;;;;;1999.90;999.90;;;;;;;19.51;100.00;93498.53;5118859;28;20194;-62
2022/08/19 06:57:26;;;;;;;1999.90;999.90;;;;;;;19.59;100.00;93493.97;5119378;28;20209;-64
2022/08/19 06:59:52;;;;;;;1999.90;999.90;;;;;;;19.70;100.00;93465.50;5119850;28;20194;-64
2022/08/19 07:02:19;;;;;;;1999.90;999.90;;;;;;;19.77;100.00;93459.44;5119005;28;20203;-65
2022/08/19 07:04:44;;;;;;;1999.90;999.90;;;;;;;19.80;100.00;93442.53;5119550;28;20183;-70
2022/08/19 07:07:12;;;;;;;1999.90;999.90;;;;;;;19.75;100.00;93451.63;5119030;28;20183;-68
2022/08/19 07:09:43;;;;;;;1999.90;999.90;;;;;;;19.76;100.00;93453.13;5119003;28;20195;-68
2022/08/19 07:12:11;;;;;;;1999.90;999.90;;;;;;;19.73;100.00;93448.59;5119119;28;20179;-69
2022/08/19 07:14:38;;;;;;;1999.90;999.90;;;;;;;19.85;100.00;93441.75;5119277;28;20191;-65
2022/08/19 07:17:07;;;;;;;1999.90;999.90;;;;;;;20.02;100.00;93431.34;5118937;28;20214;-65
2022/08/19 07:19:33;;;;;;;1999.90;999.90;;;;;;;20.28;100.00;93409.56;5119385;28;20274;-64
2022/08/19 07:22:01;;;;;;;1999.90;999.90;;;;;;;20.40;100.00;93405.44;5118784;28;20274;-66
2022/08/19 07:24:28;;;;;;;1999.90;999.90;;;;;;;20.45;100.00;93418.53;5118791;28;20179;-66
2022/08/19 07:26:56;;;;;;;1999.90;999.90;;;;;;;20.50;100.00;93428.81;5118483;28;20182;-66
2022/08/19 07:29:23;;;;;;;1999.90;999.90;;;;;;;20.63;100.00;93440.09;5118881;28;20198;-60
2022/08/19 07:31:50;;;;;;;1999.90;999.90;;;;;;;20.72;100.00;93459.16;5118895;28;20179;-67
2022/08/19 07:34:16;;;;;;;1999.90;999.90;;;;;;;20.78;100.00;93476.53;5118523;28;20194;-68
2022/08/19 07:36:43;;;;;;;1999.90;999.90;;;;;;;20.85;100.00;93484.31;5118798;28;20211;-67
2022/08/19 07:39:30;;;;;;;1999.90;999.90;;;;;;;20.89;100.00;93523.66;5118744;28;20191;-67
2022/08/19 07:41:58;;;;;;;1999.90;999.90;;;;;;;20.88;100.00;93549.91;5118517;28;20232;-66
2022/08/19 07:44:23;;;;;;;1999.90;999.90;;;;;;;20.86;100.00;93582.19;5118434;28;20282;-68
2022/08/19 07:46:52;;;;;;;1999.90;999.90;;;;;;;20.80;100.00;93615.53;5118354;28;20272;-59
2022/08/19 07:49:19;;;;;;;1999.90;999.90;;;;;;;20.73;100.00;93632.75;5118175;28;20278;-59
2022/08/19 07:51:51;;;;;;;1999.90;999.90;;;;;;;20.69;100.00;93654.44;5118437;28;20191;-54
2022/08/19 07:54:17;;;;;;;1999.90;999.90;;;;;;;20.65;100.00;93665.03;5118968;28;20226;-56
2022/08/19 07:56:43;;;;;;;1999.90;999.90;;;;;;;20.71;100.00;93656.69;5117933;28;20207;-55
2022/08/19 07:59:09;;;;;;;1999.90;999.90;;;;;;;20.73;100.00;93670.81;5118281;28;20229;-54
2022/08/19 08:01:35;;;;;;;1999.90;999.90;;;;;;;20.75;100.00;93674.59;5118073;28;20191;-55
2022/08/19 08:09:32;;;;;;;1999.90;999.90;;;;;;;20.39;100.00;93725.63;5136339;28;20210;-52
2022/08/19 08:12:09;;;;;;;1999.90;999.90;;;;;;;20.32;100.00;93703.97;5118582;28;20199;-51
2022/08/19 08:14:47;;;;;;;1999.90;999.90;;;;;;;20.26;100.00;93697.69;5118752;28;20189;-51
2022/08/19 08:17:14;;;;;;;1999.90;999.90;;;;;;;20.22;100.00;93688.13;5117871;28;20244;-50
2022/08/19 08:19:40;;;;;;;1999.90;999.90;;;;;;;20.20;100.00;93683.06;5118119;28;20187;-53
2022/08/19 08:22:07;;;;;;;1999.90;999.90;;;;;;;20.19;100.00;93672.47;5117820;28;20327;-51
2022/08/19 08:24:35;;;;;;;1999.90;999.90;;;;;;;20.28;100.00;93670.19;5117646;28;20175;-57
2022/08/19 08:27:02;;;;;;;1999.90;999.90;;;;;;;20.27;100.00;93665.16;5136042;28;20316;-61
2022/08/19 08:29:30;;;;;;;1999.90;999.90;;;;;;;20.24;100.00;93669.69;5117649;28;20218;-61
2022/08/19 08:31:56;;;;;;;1999.90;999.90;;;;;;;20.23;100.00;93659.13;5117835;28;20248;-60
2022/08/19 08:34:21;;;;;;;1999.90;999.90;;;;;;;20.19;100.00;93662.16;5117600;28;20179;-61
2022/08/19 08:36:47;;;;;;;1999.90;999.90;;;;;;;20.16;100.00;93663.16;5135595;28;20290;-60
2022/08/19 08:39:18;;;;;;;1999.90;999.90;;;;;;;20.15;100.00;93649.81;5117939;28;20267;-60
2022/08/19 08:42:19;;;;;;;1999.90;999.90;;;;;;;20.17;100.00;93639.72;5117508;28;20187;-49
2022/08/19 08:45:05;;;;;;;1999.90;999.90;;;;;;;20.18;100.00;93623.84;5135757;28;20182;-62
2022/08/19 08:47:37;;;;;;;1999.90;999.90;;;;;;;20.11;100.00;93627.91;5116875;28;20175;-59
2022/08/19 08:50:14;;;;;;;1999.90;999.90;;;;;;;19.97;100.00;93633.69;5117220;28;20271;-59
2022/08/19 08:52:44;;;;;;;1999.90;999.90;;;;;;;19.94;100.00;93615.28;5117851;28;20174;-59
2022/08/19 08:55:13;;;;;;;1999.90;999.90;;;;;;;19.92;100.00;93604.72;5117052;28;20236;-59
2022/08/19 08:58:20;;;;;;;1999.90;999.90;;;;;;;19.87;100.00;93597.19;5117293;28;20237;-60
2022/08/19 09:00:47;;;;;;;1999.90;999.90;;;;;;;19.88;100.00;93582.06;5103411;28;20230;-57
2022/08/19 09:03:20;;;;;;;1999.90;999.90;;;;;;;19.82;100.00;93570.25;5117211;28;20224;-57
2022/08/19 09:06:00;;;;;;;1999.90;999.90;;;;;;;19.74;100.00;93557.41;5117289;28;20213;-57
2022/08/19 09:08:44;;;;;;;1999.90;999.90;;;;;;;19.75;100.00;93545.06;5117532;28;20183;-57
2022/08/19 09:11:19;;;;;;;1999.90;999.90;;;;;;;19.79;100.00;93526.94;5117004;28;20191;-57
2022/08/19 09:14:14;;;;;;;1999.90;999.90;;;;;;;19.85;100.00;93511.03;5117630;28;20182;-57
2022/08/19 09:16:40;;;;;;;1999.90;999.90;;;;;;;19.87;100.00;93497.41;5117083;28;20278;-57
2022/08/19 09:19:08;;;;;;;1999.90;999.90;;;;;;;19.79;100.00;93496.44;5117211;28;20312;-58
2022/08/19 09:21:34;;;;;;;1999.90;999.90;;;;;;;19.77;100.00;93476.78;5116902;28;20221;-58
2022/08/19 09:24:01;;;;;;;1999.90;999.90;;;;;;;19.74;100.00;93466.72;5117015;28;20196;-73
2022/08/19 09:26:27;;;;;;;1999.90;999.90;;;;;;;19.75;100.00;93459.19;5116697;28;20214;-75
2022/08/19 09:28:54;;;;;;;1999.90;999.90;;;;;;;19.76;100.00;93450.38;5116974;28;20191;-73
2022/08/19 09:31:23;;;;;;;1999.90;999.90;;;;;;;19.79;100.00;93441.03;5117392;28;20186;-75
2022/08/19 09:34:06;;;;;;;1999.90;999.90;;;;;;;19.86;100.00;93423.88;5116744;28;20182;-76
2022/08/19 09:36:33;;;;;;;1999.90;999.90;;;;;;;20.03;100.00;93409.94;5117062;28;20234;-76
2022/08/19 09:39:00;;;;;;;1999.90;999.90;;;;;;;20.15;100.00;93395.53;5116918;28;20190;-58
2022/08/19 09:41:26;;;;;;;1999.90;999.90;;;;;;;20.32;100.00;93379.53;5116909;28;20191;-59
2022/08/19 09:43:55;;;;;;;1999.90;999.90;;;;;;;20.48;100.00;93356.47;5116675;28;20218;-58
2022/08/19 09:46:23;;;;;;;1999.90;999.90;;;;;;;20.71;100.00;93346.69;5116827;28;20315;-58
2022/08/19 09:48:50;;;;;;;1999.90;999.90;;;;;;;20.83;100.00;93336.97;5117098;28;20218;-58
2022/08/19 09:51:21;;;;;;;1999.90;999.90;;;;;;;21.02;100.00;93343.38;5116692;28;20240;-58
2022/08/19 09:53:50;;;;;;;1999.90;999.90;;;;;;;21.28;100.00;93348.41;5116683;28;20183;-59
2022/08/19 09:56:17;;;;;;;1999.90;999.90;;;;;;;21.50;100.00;93376.69;5116512;28;20264;-64
2022/08/19 09:58:43;;;;;;;1999.90;999.90;;;;;;;21.74;100.00;93409.25;5116253;28;20183;-58
2022/08/19 10:01:08;;;;;;;1999.90;999.90;;;;;;;21.96;100.00;93456.28;5116555;28;20232;-59
2022/08/19 10:03:35;;;;;;;1999.90;999.90;;;;;;;21.90;100.00;93536.97;5116709;28;20183;-59
2022/08/19 10:06:02;;;;;;;1999.90;999.90;;;;;;;21.92;100.00;93628.94;5116020;28;20186;-58
2022/08/19 10:08:31;;;;;;;1999.90;999.90;;;;;;;22.14;100.00;93673.22;5116200;28;20179;-58
2022/08/19 10:10:57;;;;;;;1999.90;999.90;;;;;;;22.34;100.00;93747.91;5116180;28;20197;-66
2022/08/19 10:13:26;;;;;;;1999.90;999.90;;;;;;;22.38;100.00;93812.38;5116183;28;20250;-62
2022/08/19 10:15:56;;;;;;;1999.90;999.90;;;;;;;22.63;100.00;93857.72;5116688;28;20203;-57
2022/08/19 10:18:24;;;;;;;1999.90;999.90;;;;;;;22.64;100.00;93933.63;5116420;28;20183;-64
2022/08/19 10:20:52;;;;;;;1999.90;999.90;;;;;;;22.68;100.00;93984.25;5116174;28;20211;-64
2022/08/19 10:23:18;;;;;;;1999.90;999.90;;;;;;;22.96;100.00;93979.97;5116379;28;20269;-63
2022/08/19 10:25:44;;;;;;;1999.90;999.90;;;;;;;23.12;100.00;93993.00;5116470;28;20222;-63
2022/08/19 10:28:11;;;;;;;1999.90;999.90;;;;;;;23.38;100.00;94028.81;5116093;28;20179;-63
2022/08/19 10:30:38;;;;;;;1999.90;999.90;;;;;;;23.56;100.00;94100.66;5116571;28;20184;-64
2022/08/19 10:33:04;;;;;;;1999.90;999.90;;;;;;;23.74;100.00;94152.97;5116087;28;20179;-63
2022/08/19 10:35:30;;;;;;;1999.90;999.90;;;;;;;24.43;100.00;94191.19;5116005;28;20199;-59
2022/08/19 10:38:01;;;;;;;1999.90;999.90;;;;;;;24.55;100.00;94248.44;5115846;28;20187;-58
2022/08/19 10:40:27;;;;;;;1999.90;999.90;;;;;;;24.66;100.00;94297.91;5116221;28;20168;-60
2022/08/19 10:42:53;;;;;;;1999.90;999.90;;;;;;;24.51;100.00;94312.19;5116016;28;20194;-59
2022/08/19 10:45:22;;;;;;;1999.90;999.90;;;;;;;24.45;100.00;94361.00;5116597;28;20179;-59
2022/08/19 10:47:47;;;;;;;1999.90;999.90;;;;;;;25.18;100.00;94376.66;5115919;28;20194;-58
2022/08/19 10:52:56;;;;;;;1999.90;999.90;;;;;;;25.19;100.00;94470.44;5134530;28;20205;-58
2022/08/19 10:58:22;;;;;;;1999.90;999.90;;;;;;;25.64;100.00;94482.78;5134172;28;20225;-60
2022/08/19 11:00:55;;;;;;;1999.90;999.90;;;;;;;25.82;100.00;94507.25;5115581;28;20175;-61
2022/08/19 11:03:21;;;;;;;1999.90;999.90;;;;;;;25.88;100.00;94524.75;5116067;28;20175;-61
2022/08/19 11:05:56;;;;;;;1999.90;999.90;;;;;;;25.36;100.00;94527.00;5115649;28;20175;-61
2022/08/19 11:08:22;;;;;;;1999.90;999.90;;;;;;;25.02;100.00;94492.91;5116034;27;20179;-62
2022/08/19 11:10:47;;;;;;;1999.90;999.90;;;;;;;24.78;100.00;94458.53;5118407;28;20190;-59